x

8452944 - Conimicut Light, Ri (cptr1) Weather Station

5:12am - Sun 24th Sep 2017 All times are EDT. -4 hours from GMT.

  • Wind
    3mph, 3mph gusts
  • Sea Temp 67°f
  • 空気 Temp 62°f
  • Sea Pressure 1016.9mb
  • 8452944 - Conimicut Light, Ri
  • 8452944 - Conimicut Light, Ri

More Historic Weather Station data

Upgrade to MSW Pro to gain access to the past 30 days of data for over 8000 Wavebouys and Weather Stations around the globe.

Join

Comparision Forecast

View Surf forecast
   
Sun 09/24 5:12am 3 3 mph 1016.9mb 67f 62f
5:06am 2 3 mph 1016.9mb 67f 62f
5:00am 2 2 mph 1016.9mb 67f 62f
4:54am 2 3 mph 1016.9mb 67f 62f
4:48am 3 3 mph 1016.8mb 67f 62f
4:42am 2 2 mph 1016.8mb 67f 62f
4:36am 2 3 mph 1016.8mb 67f 63f
4:30am 3 3 mph 1016.8mb 67f 63f
4:24am  -  1 mph 1016.8mb 67f 63f
4:18am 1 3 mph 1016.8mb 67f 63f
4:12am 3 5 mph 1016.8mb 67f 63f
4:06am 3 6 mph 1016.6mb 67f 63f
4:00am 6 6 mph 1016.6mb 67f 62f
3:54am 6 6 mph 1016.6mb 67f 63f
3:48am 3 5 mph 1016.6mb 67f 63f
3:42am 2 3 mph 1016.5mb 67f 63f
3:36am 2 3 mph 1016.5mb 67f 63f
3:30am 2 3 mph 1016.5mb 67f 63f
3:24am 3 5 mph 1016.4mb 67f 63f
3:18am 3 3 mph - - -
3:12am 3 3 mph 1016.4mb 67f 63f
3:06am 3 3 mph 1016.4mb 67f 63f
3:00am 3 3 mph 1016.4mb 67f 63f
2:54am 2 3 mph 1016.3mb 67f 63f
2:48am 2 2 mph - - -
2:42am 2 2 mph 1016.2mb 67f 63f
2:36am 1 2 mph 1016.1mb 67f 63f
2:30am 1 2 mph 1016.1mb 67f 63f
2:24am 2 3 mph 1016.2mb 67f 63f
2:18am 2 2 mph - - -
2:12am 2 2 mph 1016.3mb 67f 63f
2:06am 2 2 mph 1016.3mb 67f 63f
2:00am 2 3 mph 1016.4mb 67f 63f
1:54am 2 3 mph 1016.4mb 67f 63f
1:48am 3 3 mph 1016.6mb 67f 64f
1:42am 1 2 mph 1016.5mb 67f 64f
1:36am 2 2 mph 1016.5mb 67f 64f
1:30am 2 2 mph 1016.6mb 67f 64f
1:24am 2 2 mph 1016.5mb 67f 64f
1:18am 2 2 mph 1016.5mb 67f 64f
1:12am 1 2 mph 1016.6mb 67f 64f
1:06am 1 1 mph 1016.6mb 67f 64f
1:00am 2 2 mph 1016.6mb 67f 64f
12:54am 2 2 mph 1016.6mb 67f 64f
12:48am 2 2 mph 1016.6mb 67f 64f
12:42am 1 2 mph 1016.6mb 67f 64f
12:36am 2 2 mph 1016.6mb 67f 64f
12:30am 1 2 mph 1016.5mb 67f 65f
12:24am 2 3 mph 1016.6mb 67f 65f
12:18am 3 5 mph 1016.7mb 67f 65f
12:12am 3 5 mph 1016.7mb 67f 65f
12:06am 5 6 mph 1016.8mb 67f 65f
12:00am 5 6 mph 1016.8mb 67f 65f
Sat 09/23 11:54pm 5 5 mph 1016.8mb 67f 65f
11:48pm 3 5 mph - - -
11:42pm 3 3 mph 1016.7mb 67f 65f
11:36pm 3 5 mph 1016.8mb 67f 65f
11:30pm 3 5 mph 1016.9mb 67f 65f
11:24pm 3 3 mph 1016.9mb 67f 65f
11:18pm 3 3 mph 1017mb 67f 65f
11:12pm 2 3 mph 1017mb 67f 65f
11:06pm 3 5 mph 1016.9mb 67f 65f
11:00pm 3 5 mph 1016.9mb 67f 66f
10:54pm 5 5 mph 1016.9mb 67f 66f
10:48pm 5 6 mph 1016.8mb 67f 66f
10:42pm 6 6 mph 1016.8mb 67f 66f
10:36pm 6 6 mph 1016.8mb 67f 66f
10:30pm 6 6 mph 1016.8mb 67f 66f
10:24pm 5 5 mph 1016.9mb 67f 66f
10:18pm 5 5 mph - - -
10:12pm 5 5 mph 1016.7mb 67f 66f
10:06pm 5 5 mph 1016.7mb 67f 66f
10:00pm 3 3 mph 1016.8mb 67f 67f
9:54pm 2 3 mph 1016.9mb 67f 67f
9:48pm 3 5 mph - - -
9:42pm 5 6 mph 1017mb 67f 67f
9:36pm 6 6 mph 1016.9mb 67f 67f
9:30pm 5 6 mph 1016.9mb 67f 67f
9:24pm 5 6 mph 1016.9mb 67f 67f
9:18pm 6 6 mph 1016.9mb - -
9:12pm 6 6 mph 1016.8mb 67f 67f
9:06pm 3 5 mph 1016.8mb 67f 68f
9:00pm 3 5 mph 1016.7mb 67f 68f
8:48pm 3 3 mph - - -
8:42pm 2 3 mph 1016.6mb 67f 68f
8:36pm 3 5 mph 1016.7mb 67f 69f
8:30pm 3 3 mph 1016.6mb 67f 69f
8:24pm 3 5 mph 1016.6mb 67f 69f
8:18pm 3 5 mph 1016.6mb - -
8:12pm 2 3 mph 1016.6mb 68f 69f
8:06pm 2 5 mph 1016.5mb 68f 69f
8:00pm 3 5 mph 1016.4mb 68f 69f
7:54pm 2 3 mph 1016.2mb 68f 69f
7:48pm 3 6 mph 1016.2mb 68f 69f
7:42pm 5 7 mph 1016.1mb 68f 70f
7:36pm 6 7 mph 1016mb 68f 70f
7:30pm 6 7 mph 1016mb 68f 71f
7:24pm 6 7 mph 1016mb 68f 71f
7:18pm 6 8 mph 1015.8mb - -
7:12pm 7 8 mph 1015.6mb 68f 72f
7:06pm 7 7 mph 1015.6mb 68f 72f
7:00pm 6 6 mph 1015.5mb 67f 73f
6:54pm 6 6 mph 1015.6mb 67f 73f
6:48pm 6 7 mph - - -
6:42pm 6 8 mph 1015.6mb 67f 73f
6:36pm 7 8 mph 1015.6mb 67f 74f
6:30pm 7 8 mph 1015.6mb 67f 74f
6:24pm 7 8 mph 1015.5mb 67f 75f
6:18pm 9 9 mph - - -
6:12pm 8 10 mph 1015.3mb 67f 76f
6:06pm 8 10 mph 1015.3mb 67f 76f
6:00pm 10 13 mph 1015.3mb 67f 77f
5:54pm 10 11 mph 1015.4mb 67f 77f
5:48pm 10 11 mph 1015.3mb - -
5:42pm 9 10 mph 1015.2mb 67f 78f
5:36pm 8 10 mph 1015.2mb 67f 78f
5:30pm 8 14 mph 1015.3mb 67f 79f
5:24pm 10 14 mph 1015.2mb 67f 78f
5:18pm 13 15 mph 1015.1mb 67f 78f
5:12pm 11 14 mph 1015mb 67f 79f
5:06pm 10 14 mph 1015mb 67f 79f
5:00pm 14 16 mph 1015mb 67f 78f
4:54pm 13 15 mph 1015mb 67f 78f
4:48pm 14 16 mph 1014.9mb 67f 78f
4:42pm 11 15 mph 1014.9mb 67f 78f
4:36pm 11 14 mph 1014.9mb 67f 79f
4:30pm 11 14 mph 1015mb 67f 79f
4:24pm 9 15 mph 1015mb 67f 78f
4:18pm 13 15 mph 1014.9mb 67f 78f
4:12pm 9 13 mph 1015mb 68f 77f
4:06pm 10 13 mph 1015.1mb 67f 77f
4:00pm 9 16 mph 1015.1mb 67f 77f
3:54pm 10 14 mph 1015.1mb 67f 77f
3:48pm 8 13 mph 1015.1mb 67f 77f
3:42pm 10 13 mph 1015.2mb 67f 77f
3:36pm 9 13 mph 1015.3mb 67f 77f
3:30pm 9 14 mph 1015.3mb 67f 76f
3:24pm 8 13 mph 1015.5mb 67f 76f
3:18pm 11 14 mph 1015.4mb 67f 76f
3:12pm 13 15 mph 1015.4mb 67f 75f
3:06pm 13 15 mph 1015.4mb 67f 75f
3:00pm 11 16 mph 1015.4mb 67f 75f
2:54pm 15 17 mph 1015.3mb 67f 75f
2:48pm 13 18 mph 1015.3mb 67f 75f
2:42pm 13 18 mph 1015.3mb 67f 75f
2:36pm 17 21 mph 1015.3mb 67f 74f
2:30pm 15 21 mph 1015.4mb 67f 74f
2:24pm 14 20 mph 1015.4mb 67f 74f
2:18pm 15 20 mph 1015.4mb 67f 74f
2:12pm 15 18 mph 1015.5mb 67f 74f
2:06pm 15 21 mph 1015.7mb 67f 73f
2:00pm 10 13 mph 1015.8mb 67f 73f
1:54pm 10 16 mph 1015.7mb 67f 73f
1:48pm 16 18 mph 1015.6mb 67f 73f
1:42pm 14 18 mph 1015.6mb 67f 73f
1:36pm 14 18 mph 1015.7mb 67f 73f
1:30pm 16 21 mph 1015.6mb 67f 72f
1:24pm 14 17 mph 1015.7mb 67f 72f
1:18pm 11 16 mph 1015.6mb 67f 72f
1:12pm 14 16 mph 1015.6mb 67f 71f
1:06pm 15 17 mph 1015.6mb 67f 71f
1:00pm 13 16 mph 1015.7mb 67f 71f
12:54pm 7 11 mph 1015.8mb 67f 71f
12:48pm 7 11 mph 1015.8mb 67f 71f
12:42pm 10 14 mph 1015.7mb 67f 70f
12:36pm 11 13 mph 1015.8mb 67f 70f
12:30pm 9 11 mph 1015.9mb 67f 70f
12:24pm 13 15 mph 1015.8mb 67f 70f
12:18pm 9 17 mph 1015.8mb 67f 70f
12:12pm 11 18 mph 1015.9mb 67f 69f
12:06pm 14 20 mph 1015.9mb 67f 69f
12:00pm 18 21 mph 1015.9mb 67f 68f
11:54am 15 20 mph 1016mb 67f 68f
11:48am 16 20 mph 1016mb 67f 68f
11:42am 14 17 mph 1016.1mb 67f 68f
11:36am 15 18 mph 1016.1mb 67f 68f
11:30am 15 21 mph 1016.2mb 67f 68f
11:24am 18 23 mph 1016.1mb 66f 67f
11:18am 20 22 mph 1016.1mb 66f 67f
11:12am 14 20 mph 1016.2mb 66f 67f
11:06am 17 22 mph 1016.1mb 66f 67f
11:00am 17 21 mph 1016.1mb 66f 67f
10:54am 16 18 mph 1016.2mb 66f 66f
10:48am 16 20 mph 1016.2mb 66f 65f
10:42am 17 22 mph 1016.1mb 66f 65f
10:36am 18 22 mph 1016.1mb 66f 64f
10:30am 20 24 mph 1016.1mb 66f 64f
10:24am 22 25 mph 1016mb 66f 64f
10:18am 21 25 mph 1016mb 66f 63f
10:12am 21 24 mph 1015.9mb 66f 63f
10:06am 22 24 mph 1016mb 66f 63f
10:00am 20 23 mph 1016mb - -
9:54am 20 22 mph 1015.8mb 66f 64f
9:48am 18 21 mph 1015.9mb 66f 64f
9:42am 16 18 mph 1015.8mb 66f 64f
9:36am 16 18 mph 1015.7mb 66f 64f
9:30am 17 22 mph 1015.7mb 66f 64f
9:24am 16 18 mph 1015.7mb 66f 64f
9:18am 16 21 mph 1015.7mb 66f 64f
9:12am 14 18 mph 1015.6mb 66f 64f
9:06am 15 17 mph 1015.4mb 66f 64f
9:00am 13 17 mph 1015.4mb 66f 64f
8:54am 14 17 mph 1015.4mb 66f 64f
8:48am 15 18 mph 1015.3mb 66f 64f
8:42am 10 16 mph 1015.3mb 66f 64f
8:36am 13 16 mph 1015.1mb 66f 63f
8:30am 13 15 mph 1015mb 66f 63f
8:24am 15 21 mph 1015.1mb 66f 63f
8:18am 15 16 mph 1015.2mb 66f 63f
8:12am 14 17 mph 1015mb 66f 63f
8:06am 13 18 mph 1014.9mb 66f 63f
8:00am 14 17 mph 1014.8mb 66f 63f
7:54am 16 20 mph 1014.7mb 66f 63f
7:48am 17 22 mph 1014.6mb 66f 63f
7:42am 17 26 mph 1014.6mb 66f 63f
7:36am 18 23 mph 1014.6mb 66f 63f
7:30am 18 22 mph 1014.7mb 66f 62f
7:24am 15 20 mph 1014.7mb 66f 62f
7:18am 15 22 mph 1014.6mb 66f 62f
7:12am 18 21 mph 1014.5mb 66f 62f
7:06am 17 21 mph 1014.4mb 66f 62f
7:00am 15 23 mph 1014.4mb 66f 62f
6:54am 16 24 mph 1014.4mb 66f 62f
6:48am 20 23 mph 1014.5mb 66f 62f
6:42am 17 22 mph 1014.5mb 66f 62f
6:36am 18 23 mph 1014.5mb 66f 62f
6:30am 20 23 mph 1014.6mb 66f 62f
6:24am 20 26 mph 1014.7mb 66f 63f
6:18am 20 26 mph 1014.7mb 66f 63f
6:12am 22 24 mph 1014.5mb 66f 63f
6:06am 22 26 mph 1014.4mb 67f 63f
6:00am 22 26 mph 1014.3mb 67f 63f
5:54am 21 25 mph 1014.2mb 67f 63f
5:48am 20 24 mph 1014.3mb 67f 63f
5:42am 23 26 mph 1014.1mb 67f 63f
5:36am 21 24 mph 1014mb 67f 63f
5:30am 20 24 mph 1014.1mb 67f 63f
5:24am 18 25 mph 1014mb 67f 63f
5:18am 20 24 mph 1014.1mb 67f 62f
5:12am 18 25 mph 1014mb 67f 63f
5:06am 22 26 mph 1014mb 67f 62f
5:00am 20 24 mph 1014mb 67f 63f
4:54am 18 23 mph 1014.1mb 67f 62f
4:48am 18 22 mph 1014.2mb 67f 62f
4:42am 14 20 mph 1014.1mb 67f 62f
4:36am 17 23 mph 1014.1mb 67f 63f
4:30am 22 29 mph 1013.9mb 67f 63f
4:24am 24 32 mph 1013.7mb 67f 63f
4:18am 18 26 mph 1013.9mb 67f 63f
4:12am 20 25 mph 1013.9mb 67f 63f
4:06am 24 30 mph 1013.8mb 67f 63f
4:00am 23 29 mph 1013.7mb 67f 63f
3:54am 26 33 mph 1013.6mb 67f 63f
3:48am 26 31 mph 1013.4mb 67f 63f
3:42am 22 25 mph 1013.7mb 67f 63f
3:36am 23 29 mph 1013.8mb 67f 63f
3:30am 22 26 mph 1013.8mb 67f 63f
3:24am 22 29 mph 1013.6mb 67f 63f
3:18am 21 25 mph - - -
3:12am 23 32 mph 1013.5mb 67f 63f
3:06am 23 31 mph 1013.4mb 67f 63f
3:00am 24 30 mph 1013.4mb 67f 63f
2:54am 22 28 mph 1013.4mb 67f 63f
2:48am 21 29 mph 1013.6mb 67f 63f
2:42am 22 29 mph 1013.5mb - -
2:36am 20 29 mph 1013.5mb - -
2:30am 23 29 mph 1013.6mb 67f 63f
2:24am 22 29 mph 1013.7mb 67f 63f
2:18am 21 28 mph 1013.7mb 67f 63f
2:12am 22 28 mph 1013.6mb 67f 63f
2:06am 22 26 mph 1013.6mb 67f 63f
2:00am 23 29 mph 1013.6mb 67f 63f
1:54am 24 29 mph 1013.6mb 67f 63f
1:48am 22 29 mph 1013.6mb 67f 63f
1:42am 18 28 mph 1013.6mb 67f 63f
1:36am 20 24 mph 1013.9mb 67f 63f
1:30am 23 29 mph 1013.8mb 67f 63f
1:24am 22 31 mph 1013.9mb 67f 63f
1:18am 23 33 mph 1013.7mb 67f 63f
1:12am 21 26 mph 1013.8mb 67f 63f
1:06am 21 30 mph 1013.7mb 67f 63f
1:00am 23 28 mph 1013.7mb 67f 63f
12:54am 20 23 mph 1013.7mb 67f 63f
12:48am 20 24 mph 1013.6mb 67f 63f
12:42am 22 29 mph 1013.5mb 67f 63f
12:36am 22 26 mph 1013.6mb 67f 63f
12:30am 22 30 mph 1013.6mb 67f 63f
12:24am 22 29 mph 1013.7mb 67f 63f
12:18am 20 23 mph 1013.6mb 67f 63f
12:12am 20 24 mph 1013.7mb 67f 62f
12:06am 20 24 mph 1013.6mb 67f 62f
12:00am 17 22 mph 1013.6mb 67f 62f
Fri 09/22 11:54pm 17 25 mph 1013.8mb 67f 62f
11:48pm 18 25 mph 1013.8mb - -
11:42pm 22 26 mph 1013.7mb 67f 62f
11:36pm 17 24 mph 1013.7mb 67f 62f
11:30pm 18 25 mph 1013.8mb 67f 62f
11:24pm 20 24 mph 1013.7mb 67f 62f
11:18pm 20 26 mph 1013.7mb 67f 62f
11:12pm 22 25 mph 1013.8mb 67f 62f
11:06pm 21 25 mph 1013.9mb 67f 62f
11:00pm 21 25 mph 1013.9mb 67f 62f
10:54pm 20 24 mph 1013.8mb 67f 62f
10:48pm 22 26 mph 1013.8mb 66f 62f
10:42pm 22 26 mph 1013.7mb 66f 62f
10:36pm 22 26 mph 1013.7mb 66f 62f
10:30pm 20 25 mph 1013.7mb 66f 62f
10:24pm 20 24 mph 1013.8mb 66f 62f
10:18pm 23 26 mph - - -
10:12pm 22 30 mph 1013.9mb 66f 61f
10:06pm 22 29 mph 1013.9mb 67f 62f
10:00pm 22 26 mph 1013.9mb 67f 61f
9:54pm 21 25 mph 1013.9mb 67f 61f
9:48pm 21 25 mph 1013.9mb 67f -
9:42pm 22 25 mph 1013.9mb 67f 61f
9:36pm 20 25 mph 1013.8mb 67f 61f
9:30pm 22 29 mph 1013.8mb 67f 61f
9:24pm 26 31 mph 1013.9mb 67f 61f
9:18pm 23 28 mph - - -
9:12pm 24 30 mph 1014.1mb 67f 61f
9:06pm 22 30 mph 1013.8mb 67f 61f
9:00pm 25 29 mph 1013.7mb 67f 61f
8:54pm 25 30 mph 1013.5mb 67f 61f
8:48pm 24 30 mph 1013.5mb - -
8:42pm 26 34 mph 1013.7mb 67f 61f
8:36pm 28 37 mph 1013.8mb 67f 61f
8:30pm 24 32 mph 1013.7mb 67f 61f
8:24pm 26 33 mph 1013.6mb 67f 61f
8:18pm 29 34 mph 1013.7mb - -
8:12pm 28 36 mph 1013.6mb 67f 61f
8:06pm 23 31 mph 1013.5mb 67f 61f
8:00pm 25 37 mph 1013.4mb 67f 61f
7:54pm 23 30 mph 1013.5mb 67f 61f
7:48pm 22 29 mph 1013.5mb - -
7:42pm 28 34 mph 1013.5mb 67f 61f
7:36pm 23 28 mph 1013.5mb 67f 61f
7:30pm 26 33 mph 1013.4mb 67f 61f
7:24pm 25 31 mph 1013.3mb 67f 61f
7:18pm 25 29 mph - - -
7:12pm 25 36 mph 1013.1mb 67f 61f
7:06pm 25 31 mph 1013.2mb 67f 61f
7:00pm 29 33 mph 1013.2mb - -
6:54pm 24 29 mph 1013.2mb 67f 61f
6:48pm 28 37 mph 1013.1mb 67f -
6:42pm 26 32 mph 1013.1mb 67f 61f
6:36pm 26 34 mph 1013.1mb 67f 61f
6:30pm 25 31 mph 1013.2mb 67f 61f
6:24pm 24 30 mph 1013.3mb 67f 61f
6:18pm 25 31 mph - - -
6:12pm 25 34 mph 1013.2mb 67f 61f
6:06pm 28 33 mph 1013.3mb 67f 61f
6:00pm 26 33 mph 1013.3mb 67f 61f
5:54pm 30 37 mph 1013.3mb 67f 61f
5:48pm 25 34 mph - - -
5:42pm 28 33 mph 1013.3mb 67f 60f
5:36pm 25 37 mph 1013.4mb 67f 60f
5:30pm 25 34 mph 1013.3mb 67f 60f
5:24pm 29 36 mph 1013.3mb 67f 60f
5:18pm 30 34 mph 1013.2mb 67f 61f
5:12pm 30 37 mph 1013.2mb 67f 61f
5:06pm 28 37 mph 1013.2mb 67f 61f
5:00pm 24 32 mph 1013.2mb 67f 61f
4:54pm 28 32 mph 1013.3mb 67f 60f
4:48pm 23 34 mph 1013.4mb 67f 60f
4:42pm 26 30 mph 1013.3mb 67f 61f
4:36pm 29 34 mph 1013.2mb 67f 61f
4:30pm 26 37 mph 1013.3mb 67f 61f
4:24pm 31 39 mph 1013.2mb 67f 61f
4:18pm 30 36 mph 1013.1mb 67f 60f
4:12pm 26 37 mph 1013.2mb 67f 61f
4:06pm 28 32 mph 1013.1mb 67f 61f
4:00pm 29 39 mph 1013.1mb 67f 61f
3:54pm 24 38 mph 1013.2mb 67f 61f
3:48pm 30 37 mph 1013.2mb 67f 61f
3:42pm 29 32 mph 1013.3mb 67f 61f
3:36pm 29 37 mph 1013.3mb 67f 61f
3:30pm 25 37 mph 1013.3mb 67f 61f
3:24pm 25 32 mph 1013.2mb 67f 61f
3:18pm 26 33 mph 1013.4mb 67f 61f
3:12pm 28 33 mph 1013.3mb 67f 61f
3:06pm 25 37 mph 1013.3mb 67f 61f
3:00pm 24 33 mph 1013.3mb 67f 61f
2:54pm 28 34 mph 1013.3mb 67f 61f
2:48pm 29 36 mph 1013.3mb 67f 61f
2:42pm 25 36 mph 1013.2mb 67f 61f
2:36pm 28 37 mph 1013.3mb 67f 60f
2:30pm 28 39 mph 1013.4mb 67f 61f
2:24pm 24 37 mph 1013.3mb 67f 60f
2:18pm 24 30 mph 1013.4mb 67f 60f
2:12pm 24 34 mph 1013.4mb 67f 60f
2:06pm 24 34 mph 1013.5mb 67f 60f
2:00pm 25 33 mph 1013.5mb 67f 60f
1:54pm 22 29 mph 1013.7mb 67f 60f
1:48pm 22 29 mph - - -
1:42pm 26 33 mph 1013.8mb 67f 60f
1:36pm 25 30 mph 1013.9mb 67f 60f
1:30pm 24 30 mph 1013.8mb 67f 60f
1:24pm 22 30 mph 1013.9mb 67f 60f
1:18pm 25 30 mph 1014mb 67f 60f
1:12pm 22 26 mph 1014.1mb 67f 60f
1:06pm 22 28 mph 1014.1mb 67f 60f
1:00pm 23 29 mph 1014.1mb 67f 60f
12:54pm 22 28 mph 1014.1mb 67f 60f
12:48pm 23 29 mph 1014.2mb 67f 60f
12:42pm 25 31 mph 1014.1mb 67f 60f
12:36pm 24 28 mph 1014mb 67f 60f
12:30pm 24 31 mph 1014.1mb 67f 60f
12:24pm 25 30 mph 1014.2mb 67f 60f
12:18pm 24 29 mph 1014.1mb 67f 60f
12:12pm 24 29 mph 1014mb 67f 59f
12:06pm 24 30 mph 1013.9mb 67f 60f
12:00pm 24 31 mph 1014mb 67f 59f
11:54am 25 32 mph 1014mb 67f 59f
11:48am 24 29 mph 1014mb 67f 59f
11:42am 28 33 mph 1013.9mb 67f 59f
11:36am 24 32 mph 1013.9mb 67f 59f
11:30am 30 38 mph 1013.9mb 67f 59f
11:24am 24 29 mph 1014.1mb 67f 59f
11:18am 28 33 mph 1014.2mb 67f 59f
11:12am 25 30 mph 1014.2mb 67f 59f
11:06am 28 36 mph 1014.2mb 67f 59f
11:00am 28 36 mph 1014mb 67f 59f
10:54am 29 37 mph 1014mb 67f 59f
10:48am 24 34 mph 1014.2mb 67f 59f
10:42am 26 33 mph 1014.2mb 67f 59f
10:36am 23 34 mph 1014.3mb 67f 59f
10:30am 28 36 mph 1014.1mb 67f 59f
10:24am 24 32 mph 1014.1mb 67f 59f
10:18am 26 37 mph 1013.9mb 67f 59f
10:12am 28 32 mph 1013.9mb 67f 59f
10:06am 28 37 mph 1014mb 67f 59f
10:00am 26 34 mph 1014mb 67f 59f
9:54am 28 37 mph 1014.2mb 67f 59f
9:48am 26 33 mph 1014.3mb 67f 59f
9:42am 30 38 mph 1014.1mb 67f 59f
9:36am 28 36 mph 1014.2mb 67f 59f
9:30am 24 37 mph 1014.2mb 67f 59f
9:24am 24 33 mph 1014.1mb 67f 59f
9:18am 30 37 mph 1013.9mb 67f 59f
9:12am 28 33 mph 1013.7mb 67f 59f
9:06am 25 31 mph 1013.7mb 67f 59f
9:00am 30 37 mph 1013.6mb 67f 59f
8:54am 31 40 mph 1013.5mb 67f 59f
8:48am 31 37 mph 1013.5mb 67f 59f
8:42am 25 40 mph 1013.6mb 67f 59f
8:36am 28 36 mph 1013.7mb 67f 59f
8:30am 25 34 mph 1013.7mb 67f 59f
8:24am 28 34 mph 1013.6mb 67f 59f
8:18am 26 36 mph 1013.6mb 67f 59f
8:12am 28 36 mph 1013.5mb 67f 59f
8:06am 25 34 mph 1013.7mb 67f 59f
8:00am 26 34 mph 1013.5mb 67f 59f
7:54am 30 36 mph 1013.5mb 67f 59f
7:48am 32 41 mph 1013.4mb 67f 59f
7:42am 29 37 mph 1013.4mb 67f 59f
7:36am 32 39 mph 1013.5mb 67f 59f
7:30am 29 37 mph 1013.5mb 67f 60f
7:24am 28 40 mph 1013.4mb 67f 60f
7:18am 28 33 mph 1013.4mb 67f 60f
7:12am 30 40 mph 1013.5mb 67f 60f
7:06am 28 38 mph 1013.6mb 67f 60f
7:00am 28 34 mph 1013.7mb 67f 60f
6:54am 31 43 mph 1013.7mb 67f 60f
6:48am 26 36 mph 1013.6mb 67f 60f
6:42am 29 37 mph 1013.5mb 67f 60f
6:36am 31 37 mph 1013.4mb 67f 60f
6:30am 30 37 mph 1013.3mb 67f 60f
6:24am 30 34 mph 1013.4mb 67f 60f
6:18am 30 39 mph 1013.4mb 67f 60f
6:12am 30 38 mph 1013.3mb 67f 60f
6:06am 26 34 mph 1013.3mb 67f 60f
6:00am 29 38 mph 1013.3mb 68f 60f
5:54am 32 39 mph 1013.2mb 68f 60f
5:48am 25 34 mph 1013.2mb 68f 60f
5:42am 28 36 mph 1013.2mb 68f 60f
5:36am 26 36 mph 1013.3mb 68f 60f
5:30am 30 41 mph 1013.3mb 68f 60f
5:24am 29 37 mph 1013.2mb 68f 60f
5:18am 25 36 mph 1013.2mb 68f 60f
5:12am 29 38 mph 1013.1mb 68f 60f
5:06am 32 40 mph 1013.2mb 68f 60f
5:00am 30 40 mph 1013.3mb 68f 60f
4:54am 26 32 mph 1013.3mb 68f 60f
4:48am 29 43 mph 1013.2mb 68f 61f
4:42am 28 36 mph 1013.2mb 68f 61f
4:36am 26 38 mph 1013.1mb 68f 61f
4:30am 29 43 mph 1013.2mb 68f 61f
4:24am 25 38 mph 1013.3mb 68f 61f
4:18am 26 36 mph 1013.1mb 68f 61f
4:12am 29 40 mph 1013.3mb 68f 61f
4:06am 30 38 mph 1013.1mb 68f 60f
4:00am 30 40 mph 1013mb 68f 61f
3:54am 30 45 mph 1013.1mb 68f 61f
3:48am 29 36 mph 1013.1mb 68f 61f
3:42am 29 39 mph 1013.1mb 68f 61f
3:36am 26 36 mph 1013.2mb 68f 61f
3:30am 29 36 mph 1013.3mb 68f 61f
3:24am 30 39 mph 1013.4mb 68f 61f
3:18am 25 34 mph - - -
3:12am 23 40 mph 1013.4mb 68f 61f
3:06am 29 40 mph 1013.3mb 68f 61f
3:00am 32 41 mph 1013.3mb 68f 62f
2:54am 31 47 mph 1013.1mb 68f 62f
2:48am 29 37 mph 1013.2mb 68f 62f
2:42am 26 37 mph 1013.1mb 68f 62f
2:36am 28 34 mph 1013.3mb 68f 62f
2:30am 31 39 mph 1013.4mb 68f 62f
2:24am 29 39 mph 1013.5mb 68f 62f
2:18am 31 38 mph 1013.5mb 68f 62f
2:12am 31 37 mph 1013.4mb 68f 62f
2:06am 26 41 mph 1013.6mb 68f 63f
2:00am 30 38 mph 1013.6mb 68f 63f
1:54am 29 39 mph 1013.8mb 68f 63f
1:48am 32 40 mph 1013.8mb 68f 63f
1:42am 29 38 mph 1013.9mb - -
1:36am 32 43 mph 1013.9mb - -
1:30am 34 43 mph 1013.7mb 68f 64f
1:24am 31 40 mph 1013.8mb 68f 64f
1:18am 31 46 mph 1013.9mb 68f 64f
1:12am 36 43 mph 1014mb 68f 64f
1:06am 31 41 mph 1013.9mb 68f 65f
1:00am 29 40 mph 1014.1mb 68f 65f
12:54am 34 44 mph 1014mb 68f 65f
12:48am 30 39 mph 1013.9mb 68f 65f
12:42am 29 41 mph 1013.8mb 68f 65f
12:36am 30 44 mph 1013.7mb 68f 65f
12:30am 31 41 mph 1013.6mb 68f 65f
12:24am 32 41 mph 1013.7mb 68f 65f
12:18am 30 47 mph 1013.8mb 68f 65f
12:12am 32 41 mph 1013.8mb 68f 65f
12:06am 30 39 mph 1013.9mb 68f 65f
12:00am 28 37 mph 1013.8mb 68f 65f
Thu 09/21 11:54pm 30 38 mph 1013.9mb 68f 65f
11:48pm 30 36 mph 1014mb - -
11:42pm 32 38 mph 1013.9mb 68f 65f
11:36pm 33 45 mph 1013.8mb 68f 65f
11:30pm 31 43 mph 1014mb 68f 65f
11:24pm 32 47 mph 1013.6mb 68f 65f
11:18pm 33 44 mph 1013.8mb 68f 65f
11:12pm 34 46 mph 1013.8mb 68f 65f
11:06pm 39 46 mph 1014mb 68f 65f
11:00pm 26 38 mph 1014.4mb 68f 65f
10:54pm 33 41 mph 1014.1mb 68f 65f
10:48pm 34 52 mph 1014.1mb 68f 66f
10:42pm 32 40 mph 1014.2mb 68f 66f
10:36pm 38 47 mph 1014.1mb 68f 66f
10:30pm 26 48 mph 1014.3mb 68f 66f
10:24pm 31 38 mph 1014.3mb 68f 66f
10:18pm 29 44 mph - - -
10:12pm 31 44 mph 1014.3mb 69f 67f
10:06pm 25 32 mph 1014.5mb 69f 67f
10:00pm 21 32 mph 1014.8mb 69f 67f
9:54pm 28 36 mph 1014.7mb 69f 67f
9:48pm 24 32 mph 1014.6mb - -
9:42pm 28 33 mph 1014.6mb 68f 67f
9:36pm 22 25 mph 1014.8mb 68f 67f
9:30pm 23 32 mph 1014.9mb 68f 67f
9:24pm 22 29 mph 1014.8mb 68f 67f
9:18pm 24 29 mph - - -
9:12pm 22 30 mph 1014.7mb 68f 67f
9:06pm 21 29 mph 1015mb 68f 67f
9:00pm 20 28 mph 1015mb 68f 68f
8:54pm 25 31 mph 1014.8mb 68f 68f
8:48pm 25 33 mph - - -
8:42pm 22 39 mph 1014.6mb 68f 68f
8:36pm 22 33 mph 1014.4mb 68f 68f
8:30pm 22 31 mph 1014.6mb 68f 68f
8:24pm 23 31 mph 1014.5mb 68f 68f
8:18pm 23 29 mph 1014.5mb 68f 68f
8:12pm 23 32 mph 1014.4mb 68f 68f
8:06pm 23 29 mph 1014.5mb 68f 68f
8:00pm 25 31 mph 1014.6mb 68f 68f
7:54pm 22 32 mph 1014.7mb 68f 68f
7:48pm 22 32 mph 1014.7mb - -
7:42pm 21 28 mph 1014.8mb 68f 68f
7:36pm 20 29 mph 1014.9mb 68f 68f
7:30pm 24 31 mph 1014.8mb 69f 68f
7:24pm 25 31 mph 1014.6mb 69f 68f
7:18pm 22 28 mph - - -
7:12pm 22 29 mph 1014.5mb 69f 68f
7:06pm 25 32 mph 1014.4mb 69f 68f
7:00pm 24 31 mph 1014.2mb 69f 69f
6:54pm 28 36 mph 1014.2mb 69f 69f
6:48pm 25 34 mph 1014.1mb - -
6:42pm 23 29 mph 1014.1mb 69f 69f
6:36pm 22 29 mph 1014.1mb 69f 69f
6:30pm 22 29 mph 1014mb 69f 69f
6:24pm 24 29 mph 1014mb 69f 69f
6:18pm 22 30 mph - - -
6:12pm 25 32 mph 1013.9mb 69f 69f
6:06pm 24 34 mph 1013.9mb 69f 69f
6:00pm 24 33 mph 1013.8mb 69f 69f
5:54pm 22 30 mph 1013.9mb 69f 69f
5:48pm 24 30 mph 1013.9mb - -
5:42pm 26 34 mph 1013.8mb 69f 69f
5:36pm 24 31 mph 1013.8mb 69f 69f
5:30pm 28 36 mph 1013.9mb 69f 69f
5:24pm 21 32 mph 1014.1mb 69f 69f
5:18pm 26 37 mph 1014.1mb 69f 69f
5:12pm 23 32 mph 1014mb 69f 69f
5:06pm 26 33 mph 1013.9mb 69f 69f
5:00pm 30 40 mph 1013.9mb 69f 69f
4:54pm 28 39 mph 1014mb 69f 69f
4:48pm 32 44 mph - - -
4:42pm 34 46 mph 1013.7mb 69f 69f
4:36pm 32 38 mph 1013.5mb 69f 69f
4:30pm 24 38 mph 1013.7mb 69f 69f
4:24pm 26 40 mph 1013.5mb 69f 69f
4:18pm 32 40 mph 1013.4mb 69f 69f
4:12pm 32 38 mph 1013.4mb 69f 69f
4:06pm 32 40 mph 1013.6mb 69f 69f
4:00pm 36 45 mph 1013.4mb 69f 69f
3:54pm 29 39 mph 1013.7mb 69f 70f
3:48pm 24 37 mph 1013.7mb 69f 70f
3:42pm 32 44 mph 1013.6mb 69f 70f
3:36pm 30 44 mph 1013.6mb 69f 70f
3:30pm 30 40 mph 1013.8mb 69f 70f
3:24pm 29 48 mph 1014mb 69f 69f
3:18pm 37 44 mph 1013.7mb 69f 69f
3:12pm 33 41 mph 1014mb 69f 69f
3:06pm 37 49 mph 1014mb 69f 69f
3:00pm 28 43 mph 1014.1mb 69f 70f
2:54pm 34 48 mph 1014mb 69f 69f
2:48pm 26 38 mph 1014.1mb 69f 70f
2:42pm 33 43 mph 1014mb 69f 70f
2:36pm 25 40 mph 1013.9mb 69f 70f
2:30pm 33 41 mph 1013.8mb 69f 70f
2:24pm 29 45 mph 1013.7mb 69f 70f
2:18pm 31 38 mph 1013.5mb 69f 70f
2:12pm 28 40 mph 1013.8mb 69f 69f
2:06pm 36 44 mph 1013.5mb 69f 69f
2:00pm 29 37 mph 1013.6mb 69f 69f
1:54pm 26 34 mph 1013.8mb 69f 69f
1:48pm 33 41 mph 1013.6mb 69f 69f
1:42pm 32 43 mph 1013.7mb 69f 69f
1:36pm 31 40 mph 1013.7mb 69f 68f
1:30pm 24 34 mph 1014mb 69f 68f
1:24pm 28 38 mph 1014mb 69f 68f
1:18pm 26 38 mph 1014.2mb 69f 68f
1:12pm 28 41 mph 1014mb 69f 68f
1:06pm 32 41 mph 1013.9mb 69f 68f
1:00pm 30 38 mph 1014.1mb 69f 68f
12:54pm 29 36 mph 1014.2mb 69f 68f
12:48pm 33 41 mph 1014mb 69f 68f
12:42pm 29 37 mph 1014mb 69f 68f
12:36pm 31 37 mph 1014mb 69f 69f
12:30pm 28 34 mph 1014mb 69f 69f
12:24pm 26 38 mph 1014.1mb 69f 69f
12:18pm 30 38 mph 1014.1mb 69f 69f
12:12pm 28 37 mph 1014.1mb 69f 69f
12:06pm 26 32 mph 1014.1mb 69f 69f
12:00pm 28 34 mph 1014.2mb 69f 69f
11:54am 26 37 mph 1014.1mb 69f 69f
11:48am 29 36 mph 1014mb 69f 69f
11:42am 25 34 mph 1014.2mb 69f 69f
11:36am 28 41 mph 1014.1mb 69f 69f
11:30am 28 33 mph 1014.1mb 69f 69f
11:24am 29 34 mph 1014.2mb 69f 69f
11:18am 25 32 mph 1014.3mb 69f 69f
11:12am 23 33 mph 1014.3mb 69f 69f
11:06am 25 36 mph 1014.3mb 69f 69f
11:00am 23 34 mph 1014.3mb 69f 69f
10:54am 26 37 mph 1014.2mb 69f 68f
10:48am 32 39 mph 1014mb 69f 68f
10:42am 25 36 mph 1014.2mb 69f 68f
10:36am 32 39 mph 1014mb 69f 68f
10:30am 28 36 mph 1014.1mb 69f 68f
10:24am 21 26 mph 1014.3mb 69f 68f
10:18am 22 29 mph 1014.2mb 69f 69f
10:12am 28 34 mph 1014.1mb 69f 69f
10:06am 25 33 mph 1014mb 69f 69f
10:00am 23 33 mph 1013.8mb 69f 69f
9:54am 25 36 mph 1013.7mb 69f 69f
9:48am 28 38 mph 1013.6mb 69f 69f
9:42am 24 33 mph 1013.6mb 69f 69f
9:36am 24 30 mph 1013.6mb 69f 69f
9:30am 24 41 mph 1013.6mb 69f 69f
9:24am 31 40 mph 1013.1mb 68f 69f
9:18am 24 34 mph 1013.3mb 68f 69f
9:12am 30 38 mph 1013.1mb 68f 69f
9:06am 36 44 mph 1012.9mb 68f 69f
9:00am 28 37 mph 1012.9mb 68f 68f
8:54am 30 38 mph 1012.9mb 68f 68f
8:48am 24 36 mph 1013mb 68f 68f
8:42am 31 43 mph 1013mb 68f 69f
8:36am 30 39 mph 1012.9mb 68f 69f
8:30am 31 41 mph 1012.8mb 68f 69f
8:24am 29 44 mph 1012.9mb 68f 69f
8:18am 25 33 mph 1012.8mb 68f 69f
8:12am 26 41 mph 1012.8mb 69f 69f
8:06am 31 37 mph 1012.7mb 69f 69f
8:00am 29 41 mph 1012.7mb 69f 69f
7:54am 25 37 mph 1012.6mb 69f 69f
7:48am 32 41 mph 1012.3mb 69f 69f
7:42am 25 30 mph 1012.5mb 69f 69f
7:36am 26 38 mph 1012.5mb 69f 69f
7:30am 25 33 mph 1012.3mb 69f 69f
7:24am 24 33 mph 1012.3mb 69f 69f
7:18am 25 39 mph 1012.3mb 69f 69f
7:12am 28 41 mph 1012.1mb 69f 69f
7:06am 32 41 mph 1011.9mb 69f 69f
7:00am 32 37 mph 1011.9mb 69f 69f
6:54am 28 45 mph 1011.9mb 69f 69f
6:48am 34 43 mph 1011.4mb 69f 69f
6:42am 26 39 mph 1011.8mb 69f 69f
6:36am 28 37 mph 1011.8mb 69f 70f
6:30am 31 39 mph 1011.6mb 69f 70f
6:24am 29 37 mph 1011.6mb 69f 70f
6:18am 32 45 mph 1011.4mb 69f 70f
6:12am 26 36 mph 1011.4mb 69f 70f
6:06am 31 40 mph 1011.2mb 69f 70f
6:00am 24 33 mph 1011.2mb 69f 70f
5:54am 28 38 mph 1011mb 69f 70f
5:48am 25 33 mph 1011mb 69f 70f
5:42am 28 37 mph 1010.9mb 69f 70f
5:36am 31 46 mph 1010.7mb 69f 70f
5:30am 26 36 mph 1010.8mb 69f 70f
5:24am 26 38 mph 1010.7mb 69f 70f
5:18am 26 37 mph 1010.7mb 69f 70f
5:12am 30 43 mph 1010.5mb 69f 70f
5:06am 31 38 mph 1010.5mb 69f 70f
5:00am 32 44 mph 1010.4mb 69f 70f
4:54am 26 38 mph 1010.4mb 69f 70f
4:48am 29 40 mph 1010.4mb 69f 71f
4:42am 29 37 mph 1010.2mb 69f 71f
4:36am 29 38 mph 1010.1mb 69f 71f
4:30am 26 48 mph 1010.2mb 69f 71f
4:24am 25 34 mph 1010.1mb 70f 71f
4:18am 28 37 mph 1010.1mb 70f 71f
4:12am 25 33 mph 1010mb 70f 71f
4:06am 26 41 mph 1010mb 70f 71f
4:00am 24 43 mph 1009.7mb 70f 71f
3:54am 32 37 mph 1009.5mb 70f 71f
3:48am 24 37 mph 1009.7mb 70f 71f
3:42am 23 34 mph 1009.9mb 70f 71f
3:36am 26 38 mph 1009.8mb 70f 71f
3:30am 25 31 mph 1009.8mb 70f 71f
3:24am 29 34 mph 1009.9mb 70f 71f
3:18am 24 37 mph 1009.8mb 70f 71f
3:12am 26 41 mph 1009.7mb 70f 71f
3:06am 29 37 mph 1009.6mb 70f 71f
3:00am 29 34 mph 1009.6mb 70f 71f
2:54am 30 37 mph 1009.6mb 70f 71f
2:48am 28 36 mph - - -
2:42am 31 44 mph 1009.7mb 70f 71f
2:36am 29 39 mph 1009.8mb 70f 71f
2:30am 29 36 mph 1009.8mb 70f 71f
2:24am 32 38 mph 1009.8mb 70f 71f
2:18am 26 37 mph 1009.9mb 70f 71f
2:12am 24 41 mph 1009.9mb 70f 71f
2:06am 29 40 mph 1009.9mb 70f 71f
2:00am 26 31 mph 1009.8mb 70f 71f
1:54am 25 31 mph 1009.9mb 70f 71f
1:48am 32 39 mph 1009.8mb 70f 71f
1:42am 24 33 mph 1010mb 70f 71f
1:36am 26 36 mph 1009.9mb 70f 71f
1:30am 29 39 mph 1009.7mb 70f 71f
1:24am 26 37 mph 1009.9mb 70f 71f
1:18am 28 33 mph 1010mb 70f 71f
1:12am 30 41 mph 1010mb 70f 71f
1:06am 24 39 mph 1010.1mb 70f 71f
1:00am 24 30 mph 1010mb 70f 71f
12:54am 23 38 mph 1010.1mb 70f 71f
12:48am 25 38 mph 1010mb 70f 71f
12:42am 24 32 mph 1009.9mb 69f 71f
12:36am 32 41 mph 1009.8mb 69f 72f
12:30am 29 38 mph 1009.9mb 69f 72f
12:24am 26 31 mph 1009.9mb 69f 72f
12:18am 26 38 mph 1010mb 69f 72f
12:12am 23 39 mph 1009.9mb 69f 71f
12:06am 26 33 mph 1009.8mb 69f 71f
12:00am 29 34 mph 1009.8mb 69f 71f
Wed 09/20 11:54pm 24 32 mph 1009.9mb 69f 71f
11:48pm 24 34 mph - - -
11:42pm 22 33 mph 1009.9mb 69f 71f
11:36pm 25 31 mph 1009.9mb 69f 71f
11:30pm 24 33 mph 1009.9mb 70f 71f
11:24pm 26 34 mph 1009.9mb 70f 71f
11:18pm 28 37 mph 1009.9mb 70f 71f
11:12pm 23 37 mph 1010mb 70f 71f
11:06pm 26 38 mph 1009.9mb 70f 71f
11:00pm 24 29 mph 1009.9mb 69f 71f
10:54pm 28 34 mph 1010.1mb 69f 71f
10:48pm 25 32 mph 1010.2mb 69f 71f
10:42pm 22 30 mph 1010.2mb 69f 71f
10:36pm 20 31 mph 1010.2mb 69f 71f
10:30pm 22 26 mph 1010.2mb 69f 71f
10:24pm 20 26 mph 1010.3mb 69f 71f
10:18pm 18 29 mph 1010.2mb 69f 71f
10:12pm 18 23 mph 1010.3mb 69f 70f
10:06pm 20 25 mph 1010.3mb 69f 70f
10:00pm 22 26 mph 1010.2mb 69f 70f
9:54pm 16 22 mph 1010.3mb 69f 70f
9:48pm 16 25 mph 1010.3mb - -
9:42pm 16 21 mph 1010.2mb 69f 70f
9:36pm 16 22 mph 1010.1mb 69f 70f
9:30pm 15 20 mph 1010.1mb 69f 70f
9:24pm 17 21 mph 1010mb 69f 70f
9:18pm 16 20 mph 1010.1mb 69f 69f
9:12pm 16 24 mph 1009.9mb 69f 70f
9:06pm 20 26 mph 1009.8mb 69f 70f
9:00pm 18 28 mph 1009.8mb 69f 70f
8:54pm 23 30 mph 1009.8mb 69f 70f
8:48pm 22 31 mph - - -
8:42pm 21 28 mph 1009.8mb 69f 70f
8:36pm 22 31 mph 1009.8mb 69f 70f
8:30pm 21 29 mph 1009.9mb 69f 69f
8:24pm 23 31 mph 1009.9mb 69f 70f
8:18pm 23 33 mph - - -
8:12pm 23 32 mph 1009.8mb 69f 69f
8:06pm 29 39 mph 1009.8mb 69f 70f
8:00pm 25 30 mph 1009.9mb 69f 69f
7:54pm 23 29 mph 1009.9mb 69f 69f
7:48pm 23 30 mph 1009.9mb 69f -
7:42pm 22 33 mph 1010mb 69f 69f
7:36pm 21 29 mph 1010.1mb 69f 69f
7:30pm 23 29 mph 1010.1mb 69f 69f
7:24pm 24 34 mph 1010mb 69f 69f
7:18pm 25 31 mph 1009.9mb - -
7:12pm 24 34 mph 1010mb 69f 69f
7:06pm 24 33 mph 1009.8mb 69f 69f
7:00pm 22 39 mph 1009.8mb 69f 69f
6:54pm 28 36 mph 1009.8mb 70f 69f
6:48pm 29 37 mph 1009.6mb - -
6:42pm 28 33 mph 1009.5mb 70f 69f
6:36pm 28 34 mph 1009.6mb 70f 69f
6:30pm 22 34 mph 1009.6mb 70f 69f
6:24pm 26 34 mph 1009.6mb 70f 69f
6:18pm 24 30 mph 1009.5mb 70f 69f
6:12pm 24 39 mph 1009.5mb 70f 69f
6:06pm 26 34 mph 1009.4mb 70f 68f
6:00pm 24 33 mph 1009.4mb 70f 68f
5:54pm 29 43 mph 1009.2mb 70f 68f
5:48pm 25 36 mph - - -
5:42pm 26 36 mph 1009.2mb 70f 68f
5:36pm 28 38 mph 1009.2mb 70f 68f
5:30pm 32 38 mph 1009mb 70f 68f
5:24pm 32 39 mph 1009mb 70f 68f
5:18pm 26 37 mph 1009.1mb 70f 68f
5:12pm 26 38 mph 1009.1mb 70f 68f
5:06pm 26 33 mph 1009mb 70f 68f
5:00pm 24 36 mph 1009mb 70f 68f
4:54pm 28 33 mph 1009mb 70f 69f
4:48pm 28 33 mph 1008.9mb 70f 69f
4:42pm 25 36 mph 1008.9mb 70f 69f
4:36pm 26 37 mph 1008.7mb 70f 68f
4:30pm 28 34 mph 1008.6mb 70f 68f
4:24pm 26 38 mph 1008.7mb 70f 68f
4:18pm 25 31 mph 1008.6mb 70f 68f
4:12pm 25 37 mph 1008.6mb 70f 68f
4:06pm 30 38 mph 1008.4mb 70f 69f
4:00pm 28 37 mph 1008.4mb 70f 69f
3:54pm 29 34 mph 1008.4mb 70f 69f
3:48pm 24 34 mph 1008.5mb 70f 69f
3:42pm 24 33 mph 1008.6mb 70f 69f
3:36pm 29 32 mph 1008.5mb 70f 68f
3:30pm 24 29 mph 1008.5mb 70f 68f
3:24pm 23 33 mph 1008.6mb 70f 68f
3:18pm 28 33 mph 1008.5mb 70f 68f
3:12pm 23 31 mph 1008.6mb 70f 68f
3:06pm 24 34 mph 1008.6mb 70f 68f
3:00pm 25 36 mph 1008.7mb 70f 68f
2:54pm 28 36 mph 1008.5mb 70f 68f
2:48pm 25 32 mph 1008.6mb 70f 68f
2:42pm 23 29 mph 1008.7mb 70f 68f
2:36pm 28 33 mph 1008.6mb 70f 68f
2:30pm 25 31 mph 1008.7mb 70f 68f
2:24pm 23 37 mph 1008.6mb 70f 68f
2:18pm 26 37 mph 1008.5mb 70f 68f
2:12pm 26 33 mph 1008.5mb 70f 68f
2:06pm 29 33 mph 1008.5mb 70f 68f
2:00pm 26 38 mph 1008.5mb 70f 68f
1:54pm 26 33 mph 1008.5mb 70f 68f
1:48pm 23 31 mph 1008.6mb 70f 68f
1:42pm 25 34 mph 1008.5mb 70f 68f
1:36pm 28 33 mph 1008.4mb 70f 68f
1:30pm 25 32 mph 1008.4mb 70f 68f
1:24pm 26 33 mph 1008.4mb 70f 68f
1:18pm 25 34 mph 1008.3mb 70f 68f
1:12pm 24 33 mph 1008.3mb 70f 68f
1:06pm 26 33 mph 1008.2mb 70f 68f
1:00pm 26 34 mph 1008.3mb 70f 68f
12:54pm 29 36 mph 1008.2mb 70f 68f
12:48pm 28 36 mph 1008.3mb 70f 68f
12:42pm 26 36 mph 1008.4mb 70f 68f
12:36pm 22 34 mph 1008.8mb 70f 68f
12:30pm 24 33 mph 1008.7mb 70f 68f
12:24pm 24 30 mph 1008.8mb 70f 68f
12:18pm 25 33 mph 1008.9mb 70f 68f
12:12pm 25 36 mph 1008.9mb 70f 68f
12:06pm 26 32 mph 1008.8mb 70f 68f
12:00pm 25 30 mph 1008.7mb 70f 68f
11:54am 23 32 mph 1008.8mb 70f 68f
11:48am 26 36 mph 1008.7mb 70f 68f
11:42am 28 34 mph 1008.8mb 70f 68f
11:36am 26 36 mph 1008.7mb 70f 68f
11:30am 29 36 mph 1008.6mb 70f 68f
11:24am 23 33 mph 1008.7mb 70f 68f
11:18am 30 34 mph 1008.6mb 70f 68f
11:12am 25 32 mph 1008.8mb 70f 68f
11:06am 29 36 mph 1008.7mb 70f 68f
11:00am 24 38 mph 1008.9mb 70f 68f
10:54am 31 36 mph 1008.7mb 70f 68f
10:48am 29 38 mph 1008.9mb 70f 68f
10:42am 25 33 mph 1009mb 70f 68f
10:36am 26 36 mph 1009mb 70f 68f
10:30am 26 32 mph 1008.9mb 70f 68f